Stangelville, Wisconsin
Current Conditions -  °F | °C
As of 11:53 AM on Friday 28 Nov 2014 (Local Time) from KGRB Reporting Station
Overcast Overcast  
Wind Chill:   Ceiling: 7000
Heat Index: 19°   Visibility: 10mi
Dew Point: 14°   Wind: 10mph
Humidity: 81%   Direction: 160°SSE
Pressure: 30.09"   Gusts: NA
Location:  44.363°N, 87.8227°W
Report Text: KGRB 281753Z 16009KT 10SM OVC070 M07/M10 A3009 RMK AO2 SNE41 SLP207 P0001 60005 T10721100 11072 21117 58029
Loading
Personal Weather Stations






























Interactive Weather Map New forecast layout! Learn more

10-Day Weather Forecast

Advertisements
Track Severe Weather on mobile